Time;durP1;ratioP1;P1;durP2;ratioP2;P2;SDS_P1;SDS_P2;PMS_P1;PMS_P2;Temp;Humidity;BMP_temperature;BMP_pressure;BME280_temperature;BME280_humidity;BME280_pressure;Samples;Min_cycle;Max_cycle;Signal;HPM_P1;HPM_P2
2022/09/03 00:00:30;;;;;;;1.67;1.30;;;;;;;;;;5111005;28;20727;-46
2022/09/03 00:02:59;;;;;;;2.67;1.23;;;;;;;;;;5111965;28;20230;-45
2022/09/03 00:05:28;;;;;;;1.47;1.37;;;;;;;;;;5111654;28;20243;-47
2022/09/03 00:07:57;;;;;;;1.50;1.40;;;;;;;;;;5111649;28;20298;-45
2022/09/03 00:10:27;;;;;;;2.60;1.50;;;;;;;;;;5110958;28;20198;-46
2022/09/03 00:12:56;;;;;;;2.13;1.40;;;;;;;;;;5111655;28;20197;-46
2022/09/03 00:15:23;;;;;;;1.70;1.23;;;;;;;;;;5111939;28;20285;-47
2022/09/03 00:17:54;;;;;;;3.93;1.50;;;;;;;;;;5111688;28;20202;-46
2022/09/03 00:20:24;;;;;;;2.93;1.60;;;;;;;;;;5111350;28;20194;-47
2022/09/03 00:22:52;;;;;;;1.50;1.40;;;;;;;;;;5111568;28;20229;-46
2022/09/03 00:25:21;;;;;;;1.60;1.50;;;;;;;;;;5111441;28;20197;-47
2022/09/03 00:27:49;;;;;;;2.10;1.30;;;;;;;;;;5111006;28;20194;-46
2022/09/03 00:30:16;;;;;;;2.60;1.50;;;;;;;;;;5111367;28;20194;-46
2022/09/03 00:32:51;;;;;;;2.40;1.50;;;;;;;;;;5111387;28;20194;-47
2022/09/03 00:35:20;;;;;;;3.37;1.40;;;;;;;;;;5111733;28;20667;-46
2022/09/03 00:37:47;;;;;;;1.80;1.60;;;;;;;;;;5111414;28;20289;-46
2022/09/03 00:40:16;;;;;;;2.00;1.57;;;;;;;;;;5111566;28;20228;-46
2022/09/03 00:42:46;;;;;;;2.03;1.50;;;;;;;;;;5111572;28;20317;-47
2022/09/03 00:45:22;;;;;;;1.77;1.23;;;;;;;;;;5111120;28;20672;-47
2022/09/03 00:47:55;;;;;;;1.40;1.30;;;;;;;;;;5111415;28;20193;-45
2022/09/03 00:50:28;;;;;;;1.30;1.20;;;;;;;;;;5111491;28;20312;-45
2022/09/03 00:52:59;;;;;;;1.90;1.47;;;;;;;;;;5111277;28;20214;-45
2022/09/03 00:55:29;;;;;;;3.87;1.47;;;;;;;;;;5111511;28;20218;-46
2022/09/03 00:58:02;;;;;;;1.63;1.53;;;;;;;;;;5111516;28;20687;-45
2022/09/03 01:00:29;;;;;;;1.50;1.40;;;;;;;;;;5111193;28;20201;-47
2022/09/03 01:03:01;;;;;;;1.53;1.43;;;;;;;;;;5111179;28;20287;-46
2022/09/03 01:05:34;;;;;;;4.20;1.50;;;;;;;;;;5111357;28;20194;-46
2022/09/03 01:08:08;;;;;;;1.50;1.40;;;;;;;;;;5111338;28;20252;-46
2022/09/03 01:10:38;;;;;;;1.63;1.40;;;;;;;;;;5111231;28;20237;-47
2022/09/03 01:13:07;;;;;;;1.47;1.37;;;;;;;;;;5111175;28;20734;-47
2022/09/03 01:15:40;;;;;;;1.97;1.40;;;;;;;;;;5111076;28;20221;-46
2022/09/03 01:18:16;;;;;;;1.73;1.60;;;;;;;;;;5110367;28;20558;-46
2022/09/03 01:20:50;;;;;;;4.10;1.47;;;;;;;;;;5110949;28;20753;-47
2022/09/03 01:23:36;;;;;;;1.70;1.60;;;;;;;;;;5111066;28;20635;-46
2022/09/03 01:26:08;;;;;;;1.70;1.50;;;;;;;;;;5111276;28;20194;-46
2022/09/03 01:28:41;;;;;;;1.50;1.40;;;;;;;;;;5111116;28;20247;-46
2022/09/03 01:31:14;;;;;;;3.30;1.50;;;;;;;;;;5111246;28;20614;-46
2022/09/03 01:33:43;;;;;;;2.53;1.50;;;;;;;;;;5111114;28;20194;-45
2022/09/03 01:36:14;;;;;;;1.80;1.60;;;;;;;;;;5111175;28;20217;-46
2022/09/03 01:38:43;;;;;;;2.30;1.57;;;;;;;;;;5111159;28;20202;-45
2022/09/03 01:44:08;;;;;;;3.07;1.50;;;;;;;;;;5114466;28;20225;-46
2022/09/03 01:46:37;;;;;;;2.03;1.50;;;;;;;;;;5114651;28;20747;-46
2022/09/03 01:49:05;;;;;;;1.73;1.33;;;;;;;;;;5114622;28;20204;-46
2022/09/03 01:51:32;;;;;;;1.63;1.50;;;;;;;;;;5114180;28;20675;-46
2022/09/03 01:54:16;;;;;;;2.20;1.47;;;;;;;;;;5113312;28;20226;-46
2022/09/03 01:56:50;;;;;;;2.27;1.50;;;;;;;;;;5111316;28;20205;-46
2022/09/03 01:59:21;;;;;;;3.60;1.50;;;;;;;;;;5114230;28;20202;-46
2022/09/03 02:01:50;;;;;;;2.37;1.40;;;;;;;;;;5114129;28;20201;-46
2022/09/03 02:04:18;;;;;;;1.67;1.43;;;;;;;;;;5114252;28;20229;-46
2022/09/03 02:06:47;;;;;;;3.20;1.50;;;;;;;;;;5113816;28;20325;-46
2022/09/03 02:09:13;;;;;;;1.50;1.40;;;;;;;;;;5113555;28;20190;-46
2022/09/03 02:11:40;;;;;;;1.87;1.40;;;;;;;;;;5113998;28;20202;-46
2022/09/03 02:14:06;;;;;;;1.70;1.40;;;;;;;;;;5114182;28;20194;-46
2022/09/03 02:16:34;;;;;;;1.40;1.30;;;;;;;;;;5113918;28;20194;-49
2022/09/03 02:19:01;;;;;;;1.60;1.50;;;;;;;;;;5113965;28;20569;-47
2022/09/03 02:21:32;;;;;;;1.50;1.40;;;;;;;;;;5113838;28;20289;-47
2022/09/03 02:23:59;;;;;;;1.57;1.40;;;;;;;;;;5113848;28;20251;-46
2022/09/03 02:26:25;;;;;;;1.87;1.30;;;;;;;;;;5113853;28;20252;-46
2022/09/03 02:28:52;;;;;;;1.70;1.47;;;;;;;;;;5113623;28;20266;-46
2022/09/03 02:31:18;;;;;;;1.40;1.20;;;;;;;;;;5113575;28;20202;-46
2022/09/03 02:33:47;;;;;;;1.80;1.23;;;;;;;;;;5113433;28;20186;-45
2022/09/03 02:36:14;;;;;;;2.63;1.17;;;;;;;;;;5113521;28;20198;-46
2022/09/03 02:38:40;;;;;;;1.70;1.50;;;;;;;;;;5113411;28;20194;-46
2022/09/03 02:41:06;;;;;;;1.83;1.30;;;;;;;;;;5113478;28;20257;-46
2022/09/03 02:43:37;;;;;;;1.90;1.50;;;;;;;;;;5113194;28;20222;-46
2022/09/03 02:46:04;;;;;;;1.67;1.57;;;;;;;;;;5113501;28;20608;-46
2022/09/03 02:48:31;;;;;;;2.23;1.40;;;;;;;;;;5113624;28;20211;-46
2022/09/03 02:50:58;;;;;;;1.60;1.50;;;;;;;;;;5113146;28;20241;-46
2022/09/03 02:53:27;;;;;;;1.50;1.40;;;;;;;;;;5113688;28;20281;-46
2022/09/03 02:55:53;;;;;;;1.90;1.40;;;;;;;;;;5113168;28;20247;-46
2022/09/03 02:58:19;;;;;;;1.50;1.40;;;;;;;;;;5112987;28;20206;-46
2022/09/03 03:00:45;;;;;;;1.43;1.33;;;;;;;;;;5112932;28;20194;-46
2022/09/03 03:03:11;;;;;;;2.27;1.67;;;;;;;;;;5112957;28;20599;-46
2022/09/03 03:05:41;;;;;;;1.50;1.40;;;;;;;;;;5112917;28;20205;-46
2022/09/03 03:08:09;;;;;;;1.63;1.50;;;;;;;;;;5112837;28;20335;-46
2022/09/03 03:10:36;;;;;;;1.60;1.40;;;;;;;;;;5112967;28;20550;-46
2022/09/03 03:13:02;;;;;;;1.70;1.40;;;;;;;;;;5112941;28;20276;-46
2022/09/03 03:15:28;;;;;;;2.50;1.30;;;;;;;;;;5112695;28;20407;-46
2022/09/03 03:17:55;;;;;;;1.37;1.20;;;;;;;;;;5112832;28;20199;-45
2022/09/03 03:20:22;;;;;;;1.27;1.17;;;;;;;;;;5112780;28;20206;-45
2022/09/03 03:22:47;;;;;;;1.90;1.40;;;;;;;;;;5112522;28;20316;-46
2022/09/03 03:25:15;;;;;;;2.50;1.40;;;;;;;;;;5112545;28;20472;-45
2022/09/03 03:27:42;;;;;;;1.33;1.23;;;;;;;;;;5112540;28;20270;-46
2022/09/03 03:30:09;;;;;;;2.47;1.50;;;;;;;;;;5112433;28;20190;-46
2022/09/03 03:32:35;;;;;;;1.67;1.40;;;;;;;;;;5112256;28;20211;-45
2022/09/03 03:35:01;;;;;;;1.37;1.27;;;;;;;;;;5112637;28;20206;-46
2022/09/03 03:37:27;;;;;;;2.73;1.40;;;;;;;;;;5112534;28;20210;-46
2022/09/03 03:39:52;;;;;;;2.20;1.23;;;;;;;;;;5112281;28;20205;-46
2022/09/03 03:42:20;;;;;;;1.63;1.40;;;;;;;;;;5112348;28;20724;-46
2022/09/03 03:44:46;;;;;;;2.97;1.30;;;;;;;;;;5111988;28;20251;-46
2022/09/03 03:47:12;;;;;;;3.07;1.90;;;;;;;;;;5112285;28;20194;-46
2022/09/03 03:49:38;;;;;;;1.70;1.10;;;;;;;;;;5111806;28;20201;-46
2022/09/03 03:52:04;;;;;;;2.43;1.27;;;;;;;;;;5111817;28;20564;-46
2022/09/03 03:54:30;;;;;;;1.63;1.30;;;;;;;;;;5112211;28;20202;-46
2022/09/03 03:56:56;;;;;;;1.60;1.40;;;;;;;;;;5112080;28;20297;-46
2022/09/03 03:59:24;;;;;;;1.40;1.30;;;;;;;;;;5111994;28;20194;-46
2022/09/03 04:01:50;;;;;;;2.00;1.30;;;;;;;;;;5110298;28;20257;-46
2022/09/03 04:04:16;;;;;;;1.87;1.20;;;;;;;;;;5112036;28;20291;-46
2022/09/03 04:06:42;;;;;;;1.10;1.00;;;;;;;;;;5111572;28;20332;-46
2022/09/03 04:09:08;;;;;;;1.30;1.20;;;;;;;;;;5112274;28;20221;-46
2022/09/03 04:11:34;;;;;;;2.17;1.40;;;;;;;;;;5111824;28;20229;-46
2022/09/03 04:14:02;;;;;;;2.23;0.87;;;;;;;;;;5111966;28;20190;-46
2022/09/03 04:16:29;;;;;;;2.03;1.60;;;;;;;;;;5111865;28;20659;-46
2022/09/03 04:18:56;;;;;;;1.70;1.60;;;;;;;;;;5111734;28;20220;-46
2022/09/03 04:21:23;;;;;;;1.53;1.37;;;;;;;;;;5111825;28;20194;-46
2022/09/03 04:23:50;;;;;;;1.50;1.30;;;;;;;;;;5111524;28;20753;-46
2022/09/03 04:26:16;;;;;;;2.27;1.50;;;;;;;;;;5111772;28;20190;-46
2022/09/03 04:28:44;;;;;;;1.53;1.40;;;;;;;;;;5111706;28;20193;-46
2022/09/03 04:31:11;;;;;;;1.60;1.40;;;;;;;;;;5111642;28;20221;-46
2022/09/03 04:33:38;;;;;;;2.30;1.33;;;;;;;;;;5111643;28;20190;-46
2022/09/03 04:36:05;;;;;;;1.73;1.30;;;;;;;;;;5111739;28;20610;-46
2022/09/03 04:38:31;;;;;;;3.13;1.77;;;;;;;;;;5111628;28;20285;-46
2022/09/03 04:40:58;;;;;;;2.30;1.43;;;;;;;;;;5111620;28;20277;-46
2022/09/03 04:43:24;;;;;;;1.50;1.40;;;;;;;;;;5111570;28;20234;-46
2022/09/03 04:45:50;;;;;;;2.83;1.50;;;;;;;;;;5111609;28;20672;-46
2022/09/03 04:48:16;;;;;;;2.90;1.50;;;;;;;;;;5111351;28;20229;-46
2022/09/03 04:50:44;;;;;;;3.03;1.37;;;;;;;;;;5111348;28;20280;-47
2022/09/03 04:53:10;;;;;;;2.50;1.40;;;;;;;;;;5111651;28;20670;-46
2022/09/03 04:55:36;;;;;;;1.57;1.20;;;;;;;;;;5111449;28;20202;-46
2022/09/03 04:58:02;;;;;;;1.90;1.40;;;;;;;;;;5111519;28;20496;-46
2022/09/03 05:00:28;;;;;;;1.60;1.37;;;;;;;;;;5111238;28;20204;-46
2022/09/03 05:02:54;;;;;;;1.67;1.20;;;;;;;;;;5111245;28;20218;-46
2022/09/03 05:05:20;;;;;;;1.90;1.50;;;;;;;;;;5111487;28;20204;-46
2022/09/03 05:07:48;;;;;;;3.30;1.30;;;;;;;;;;5110972;28;20324;-46
2022/09/03 05:10:19;;;;;;;1.20;1.10;;;;;;;;;;5111546;28;20326;-46
2022/09/03 05:12:45;;;;;;;1.63;1.27;;;;;;;;;;5111465;28;20204;-46
2022/09/03 05:15:11;;;;;;;1.87;1.30;;;;;;;;;;5115265;28;20660;-46
2022/09/03 05:17:37;;;;;;;1.87;1.23;;;;;;;;;;5115011;28;20281;-46
2022/09/03 05:20:06;;;;;;;1.33;1.03;;;;;;;;;;5115190;28;20198;-46
2022/09/03 05:22:32;;;;;;;1.67;1.30;;;;;;;;;;5114898;28;20241;-46
2022/09/03 05:24:59;;;;;;;1.40;1.30;;;;;;;;;;5115022;28;20198;-46
2022/09/03 05:27:25;;;;;;;1.63;1.30;;;;;;;;;;5114916;28;20198;-46
2022/09/03 05:29:51;;;;;;;1.40;1.30;;;;;;;;;;5114768;28;20198;-47
2022/09/03 05:32:17;;;;;;;1.70;1.20;;;;;;;;;;5114664;28;20198;-46
2022/09/03 05:34:43;;;;;;;1.40;1.30;;;;;;;;;;5114604;28;20649;-45
2022/09/03 05:37:10;;;;;;;2.00;1.43;;;;;;;;;;5114555;28;20285;-46
2022/09/03 05:39:36;;;;;;;1.33;1.23;;;;;;;;;;5114561;28;20699;-46
2022/09/03 05:42:04;;;;;;;1.93;1.40;;;;;;;;;;5114728;28;20277;-46
2022/09/03 05:44:30;;;;;;;1.93;1.40;;;;;;;;;;5114600;28;20733;-46
2022/09/03 05:46:56;;;;;;;1.50;1.40;;;;;;;;;;5114539;28;20525;-46
2022/09/03 05:49:22;;;;;;;1.47;1.37;;;;;;;;;;5114699;28;20223;-46
2022/09/03 05:51:48;;;;;;;1.30;1.20;;;;;;;;;;5114498;28;20194;-46
2022/09/03 05:54:14;;;;;;;1.27;1.13;;;;;;;;;;5111660;28;20284;-46
2022/09/03 05:56:41;;;;;;;1.30;1.20;;;;;;;;;;5113084;28;20194;-46
2022/09/03 05:59:09;;;;;;;2.43;1.40;;;;;;;;;;5114341;28;20230;-46
2022/09/03 06:01:37;;;;;;;1.47;1.30;;;;;;;;;;5114164;28;20200;-46
2022/09/03 06:04:03;;;;;;;2.00;1.30;;;;;;;;;;5113461;28;20214;-46
2022/09/03 06:06:30;;;;;;;3.73;1.33;;;;;;;;;;5113567;28;20238;-46
2022/09/03 06:08:58;;;;;;;1.90;1.30;;;;;;;;;;5114016;28;20258;-46
2022/09/03 06:11:26;;;;;;;1.70;1.23;;;;;;;;;;5114086;28;20202;-46
2022/09/03 06:13:53;;;;;;;1.70;1.30;;;;;;;;;;5114001;28;20198;-46
2022/09/03 06:16:21;;;;;;;3.10;1.10;;;;;;;;;;5114178;28;20290;-46
2022/09/03 06:18:47;;;;;;;3.07;1.30;;;;;;;;;;5113935;28;20199;-46
2022/09/03 06:21:13;;;;;;;2.27;1.37;;;;;;;;;;5113265;28;20201;-46
2022/09/03 06:23:40;;;;;;;2.97;1.33;;;;;;;;;;5113068;28;20226;-44
2022/09/03 06:26:07;;;;;;;1.70;1.40;;;;;;;;;;5113333;28;20264;-44
2022/09/03 06:28:34;;;;;;;1.83;1.20;;;;;;;;;;5113717;28;20565;-45
2022/09/03 06:31:01;;;;;;;1.53;1.27;;;;;;;;;;5113766;28;20210;-46
2022/09/03 06:33:32;;;;;;;1.40;1.30;;;;;;;;;;5112771;28;20241;-46
2022/09/03 06:35:58;;;;;;;2.20;1.43;;;;;;;;;;5113400;28;20230;-47
2022/09/03 06:38:24;;;;;;;1.73;1.40;;;;;;;;;;5113608;28;20221;-46
2022/09/03 06:40:54;;;;;;;4.13;1.47;;;;;;;;;;5113200;28;20286;-46
2022/09/03 06:43:20;;;;;;;2.80;1.50;;;;;;;;;;5113449;28;20598;-46
2022/09/03 06:45:52;;;;;;;2.13;1.30;;;;;;;;;;5113395;28;20194;-46
2022/09/03 06:48:18;;;;;;;4.67;1.53;;;;;;;;;;5112738;28;20284;-46
2022/09/03 06:50:52;;;;;;;1.30;1.20;;;;;;;;;;5111916;28;20281;-46
2022/09/03 06:53:18;;;;;;;2.50;1.70;;;;;;;;;;5113116;28;20202;-46
2022/09/03 06:55:52;;;;;;;1.33;1.20;;;;;;;;;;5111178;28;20205;-46
2022/09/03 06:58:18;;;;;;;1.70;1.20;;;;;;;;;;5113010;28;20194;-46
2022/09/03 07:00:44;;;;;;;1.53;1.30;;;;;;;;;;5112693;28;20247;-46
2022/09/03 07:03:10;;;;;;;1.47;1.37;;;;;;;;;;5113104;28;20651;-46
2022/09/03 07:05:36;;;;;;;1.30;1.20;;;;;;;;;;5113280;28;20280;-46
2022/09/03 07:08:03;;;;;;;3.17;1.30;;;;;;;;;;5112830;28;20243;-46
2022/09/03 07:10:29;;;;;;;1.70;1.60;;;;;;;;;;5112948;28;20198;-46
2022/09/03 07:12:56;;;;;;;4.80;1.30;;;;;;;;;;5113164;28;20365;-46
2022/09/03 07:15:21;;;;;;;2.40;1.27;;;;;;;;;;5112792;28;20252;-46
2022/09/03 07:17:49;;;;;;;2.53;1.30;;;;;;;;;;5112636;28;20199;-46
2022/09/03 07:20:15;;;;;;;2.40;1.23;;;;;;;;;;5112784;28;20539;-46
2022/09/03 07:22:41;;;;;;;2.13;1.23;;;;;;;;;;5112267;28;20303;-45
2022/09/03 07:25:09;;;;;;;2.30;1.50;;;;;;;;;;5112796;28;20623;-45
2022/09/03 07:27:35;;;;;;;2.10;1.47;;;;;;;;;;5112759;28;20278;-44
2022/09/03 07:30:02;;;;;;;1.97;1.33;;;;;;;;;;5112431;28;20258;-45
2022/09/03 07:32:28;;;;;;;1.40;1.30;;;;;;;;;;5112600;28;20277;-45
2022/09/03 07:34:54;;;;;;;2.43;1.10;;;;;;;;;;5112485;28;20264;-46
2022/09/03 07:37:20;;;;;;;4.20;1.30;;;;;;;;;;5111534;28;20215;-47
2022/09/03 07:39:46;;;;;;;2.27;1.40;;;;;;;;;;5112343;28;20283;-46
2022/09/03 07:42:14;;;;;;;1.50;1.37;;;;;;;;;;5112353;28;20200;-46
2022/09/03 07:44:40;;;;;;;5.17;1.53;;;;;;;;;;5112090;28;20946;-46
2022/09/03 07:47:06;;;;;;;1.60;1.40;;;;;;;;;;5112572;28;20208;-46
2022/09/03 07:49:32;;;;;;;1.77;1.27;;;;;;;;;;5112090;28;20285;-46
2022/09/03 07:51:58;;;;;;;1.27;1.17;;;;;;;;;;5112198;28;20205;-46
2022/09/03 07:54:26;;;;;;;1.67;1.27;;;;;;;;;;5111446;28;20224;-47
2022/09/03 07:56:52;;;;;;;1.83;1.30;;;;;;;;;;5112040;28;20202;-46
2022/09/03 07:59:21;;;;;;;2.73;1.50;;;;;;;;;;5112043;28;20200;-45
2022/09/03 08:01:48;;;;;;;5.40;1.43;;;;;;;;;;5112169;28;20206;-46
2022/09/03 08:04:14;;;;;;;1.63;1.43;;;;;;;;;;5112209;28;20220;-45
2022/09/03 08:06:41;;;;;;;3.43;1.50;;;;;;;;;;5111891;28;20229;-46
2022/09/03 08:09:08;;;;;;;1.63;1.23;;;;;;;;;;5112283;28;20212;-47
2022/09/03 08:11:36;;;;;;;2.80;1.60;;;;;;;;;;5111678;28;20216;-47
2022/09/03 08:14:05;;;;;;;2.67;1.23;;;;;;;;;;5110306;28;20200;-47
2022/09/03 08:16:33;;;;;;;2.17;1.43;;;;;;;;;;5112338;28;20198;-47
2022/09/03 08:18:59;;;;;;;1.40;1.20;;;;;;;;;;5112108;28;20672;-47
2022/09/03 08:21:25;;;;;;;3.33;1.40;;;;;;;;;;5112287;28;20633;-47
2022/09/03 08:23:53;;;;;;;1.53;1.20;;;;;;;;;;5112030;28;20264;-47
2022/09/03 08:26:20;;;;;;;3.50;1.50;;;;;;;;;;5112322;28;20221;-47
2022/09/03 08:28:46;;;;;;;2.23;1.57;;;;;;;;;;5112150;28;20247;-46
2022/09/03 08:31:13;;;;;;;2.47;1.13;;;;;;;;;;5112026;28;20613;-47
2022/09/03 08:33:41;;;;;;;3.77;1.50;;;;;;;;;;5112184;28;20190;-46
2022/09/03 08:36:09;;;;;;;1.30;1.20;;;;;;;;;;5111984;28;20737;-46
2022/09/03 08:38:36;;;;;;;2.97;1.23;;;;;;;;;;5112206;28;20220;-47
2022/09/03 08:41:04;;;;;;;1.83;1.37;;;;;;;;;;5112048;28;20220;-47
2022/09/03 08:43:30;;;;;;;1.87;1.07;;;;;;;;;;5112001;28;20248;-47
2022/09/03 08:45:58;;;;;;;2.50;1.10;;;;;;;;;;5111945;28;20198;-46
2022/09/03 08:48:27;;;;;;;1.33;1.00;;;;;;;;;;5113871;28;20198;-47
2022/09/03 08:50:58;;;;;;;2.07;1.20;;;;;;;;;;5116313;28;20218;-46
2022/09/03 08:53:27;;;;;;;2.00;1.20;;;;;;;;;;5116111;28;20205;-46
2022/09/03 08:55:54;;;;;;;3.13;1.20;;;;;;;;;;5115995;28;20469;-47
2022/09/03 08:58:21;;;;;;;1.40;1.30;;;;;;;;;;5116234;28;20269;-46
2022/09/03 09:00:50;;;;;;;2.50;1.37;;;;;;;;;;5115885;28;20198;-47
2022/09/03 09:03:29;;;;;;;1.87;1.30;;;;;;;;;;5116163;28;20794;-46
2022/09/03 09:06:04;;;;;;;3.43;1.47;;;;;;;;;;5115502;28;20280;-47
2022/09/03 09:08:32;;;;;;;3.90;1.30;;;;;;;;;;5115339;28;20221;-47
2022/09/03 09:11:02;;;;;;;2.43;1.30;;;;;;;;;;5115554;28;20589;-47
2022/09/03 09:13:34;;;;;;;1.43;1.33;;;;;;;;;;5115355;28;20191;-47
2022/09/03 09:16:04;;;;;;;3.30;1.43;;;;;;;;;;5114230;28;20218;-47
2022/09/03 09:18:38;;;;;;;2.80;1.40;;;;;;;;;;5114302;28;20224;-47
2022/09/03 09:21:09;;;;;;;4.23;1.30;;;;;;;;;;5114664;28;20545;-47
2022/09/03 09:23:37;;;;;;;2.30;1.37;;;;;;;;;;5114886;28;20224;-47
2022/09/03 09:26:06;;;;;;;6.67;1.50;;;;;;;;;;5114674;28;20668;-47
2022/09/03 09:28:34;;;;;;;1.37;1.20;;;;;;;;;;5114159;28;20293;-47
2022/09/03 09:31:01;;;;;;;3.93;1.50;;;;;;;;;;5114720;28;20665;-53
2022/09/03 09:33:30;;;;;;;4.40;1.40;;;;;;;;;;5114910;28;20270;-59
2022/09/03 09:35:56;;;;;;;3.80;1.20;;;;;;;;;;5114901;28;20196;-50
2022/09/03 09:38:29;;;;;;;4.90;1.30;;;;;;;;;;5114222;28;20197;-48
2022/09/03 09:40:56;;;;;;;1.60;1.30;;;;;;;;;;5114492;28;20210;-49
2022/09/03 09:43:23;;;;;;;2.73;1.20;;;;;;;;;;5114541;28;20247;-49
2022/09/03 09:45:50;;;;;;;1.37;1.23;;;;;;;;;;5112334;28;20199;-49
2022/09/03 09:48:19;;;;;;;2.03;1.20;;;;;;;;;;5115138;28;20737;-48
2022/09/03 09:50:45;;;;;;;3.50;1.40;;;;;;;;;;5115046;28;20197;-48
2022/09/03 09:53:15;;;;;;;2.07;1.40;;;;;;;;;;5115011;28;20185;-48
2022/09/03 09:55:53;;;;;;;4.67;1.30;;;;;;;;;;5114855;28;20210;-47
2022/09/03 09:58:19;;;;;;;3.17;1.33;;;;;;;;;;5114912;28;20225;-47
2022/09/03 10:00:54;;;;;;;2.43;1.07;;;;;;;;;;5113588;28;20194;-47
2022/09/03 10:03:20;;;;;;;4.40;1.40;;;;;;;;;;5114708;28;20225;-48
2022/09/03 10:05:56;;;;;;;4.50;1.20;;;;;;;;;;5114743;28;20207;-47
2022/09/03 10:08:23;;;;;;;4.00;1.63;;;;;;;;;;5114558;28;20244;-47
2022/09/03 10:10:50;;;;;;;2.90;1.10;;;;;;;;;;5114569;28;20280;-48
2022/09/03 10:13:18;;;;;;;1.97;1.50;;;;;;;;;;5114724;28;20194;-48
2022/09/03 10:15:47;;;;;;;2.80;1.57;;;;;;;;;;5114413;28;20293;-47
2022/09/03 10:18:17;;;;;;;1.10;1.00;;;;;;;;;;5114224;28;20198;-49
2022/09/03 10:20:46;;;;;;;5.33;1.40;;;;;;;;;;5114428;28;20201;-48
2022/09/03 10:23:14;;;;;;;7.90;1.80;;;;;;;;;;5114285;28;20688;-48
2022/09/03 10:25:46;;;;;;;3.43;1.53;;;;;;;;;;5114421;28;20289;-47
2022/09/03 10:28:12;;;;;;;2.93;1.30;;;;;;;;;;5114260;28;20231;-48
2022/09/03 10:30:49;;;;;;;4.20;1.67;;;;;;;;;;5114340;28;20732;-48
2022/09/03 10:33:16;;;;;;;4.00;1.30;;;;;;;;;;5114360;28;20211;-48
2022/09/03 10:35:45;;;;;;;5.93;1.40;;;;;;;;;;5114226;28;20223;-49
2022/09/03 10:38:17;;;;;;;2.63;1.30;;;;;;;;;;5114285;28;20208;-48
2022/09/03 10:40:48;;;;;;;4.63;1.40;;;;;;;;;;5113981;28;20680;-49
2022/09/03 10:43:30;;;;;;;1.57;1.40;;;;;;;;;;5113973;28;20231;-48
2022/09/03 10:46:01;;;;;;;3.33;1.23;;;;;;;;;;5113882;28;20204;-49
2022/09/03 10:48:44;;;;;;;2.17;1.40;;;;;;;;;;5113793;28;20258;-48
2022/09/03 10:51:16;;;;;;;1.77;1.30;;;;;;;;;;5113936;28;20204;-48
2022/09/03 10:53:54;;;;;;;4.13;1.50;;;;;;;;;;5113765;28;20223;-48
2022/09/03 10:56:22;;;;;;;2.30;1.10;;;;;;;;;;5114088;28;20562;-48
2022/09/03 10:58:53;;;;;;;4.07;1.30;;;;;;;;;;5113637;28;20256;-48
2022/09/03 11:01:25;;;;;;;7.53;1.33;;;;;;;;;;5113737;28;20643;-48
2022/09/03 11:03:56;;;;;;;6.50;1.30;;;;;;;;;;5113690;28;20318;-48
2022/09/03 11:06:23;;;;;;;4.97;1.30;;;;;;;;;;5113567;28;20234;-49
2022/09/03 11:08:53;;;;;;;3.93;1.27;;;;;;;;;;5113575;28;20245;-48
2022/09/03 11:11:21;;;;;;;1.73;1.30;;;;;;;;;;5113339;28;20196;-47
2022/09/03 11:13:49;;;;;;;5.67;1.43;;;;;;;;;;5113312;28;20225;-47
2022/09/03 11:16:18;;;;;;;6.50;1.70;;;;;;;;;;5113113;28;20212;-48
2022/09/03 11:18:49;;;;;;;3.20;1.27;;;;;;;;;;5113099;28;20241;-48
2022/09/03 11:21:17;;;;;;;3.67;1.33;;;;;;;;;;5113308;28;20571;-47
2022/09/03 11:23:44;;;;;;;1.73;1.20;;;;;;;;;;5112954;28;20224;-48
2022/09/03 11:26:12;;;;;;;4.27;1.37;;;;;;;;;;5113163;28;20205;-48
2022/09/03 11:28:44;;;;;;;4.17;1.50;;;;;;;;;;5113077;28;20613;-48
2022/09/03 11:31:18;;;;;;;3.10;1.17;;;;;;;;;;5112843;28;20258;-48
2022/09/03 11:33:45;;;;;;;2.90;1.20;;;;;;;;;;5113115;28;20434;-48
2022/09/03 11:36:13;;;;;;;5.63;1.13;;;;;;;;;;5113086;28;20197;-48
2022/09/03 11:38:39;;;;;;;1.50;1.20;;;;;;;;;;5111701;28;20201;-48
2022/09/03 11:41:13;;;;;;;3.67;1.20;;;;;;;;;;5112861;28;20216;-48
2022/09/03 11:43:39;;;;;;;1.87;1.27;;;;;;;;;;5112578;28;20225;-48
2022/09/03 11:46:11;;;;;;;7.97;1.43;;;;;;;;;;5112344;28;20199;-48
2022/09/03 11:48:39;;;;;;;3.33;1.20;;;;;;;;;;5110783;28;20205;-48
2022/09/03 11:51:16;;;;;;;4.67;1.23;;;;;;;;;;5111743;28;20193;-48
2022/09/03 11:53:52;;;;;;;3.40;1.20;;;;;;;;;;5111614;28;20226;-48
2022/09/03 11:56:19;;;;;;;5.60;1.17;;;;;;;;;;5111606;28;20200;-47
2022/09/03 11:58:45;;;;;;;2.27;1.20;;;;;;;;;;5111079;28;20604;-48
2022/09/03 12:01:12;;;;;;;3.30;1.37;;;;;;;;;;5111362;28;20288;-47
2022/09/03 12:03:42;;;;;;;3.97;1.13;;;;;;;;;;5111654;28;20232;-48
2022/09/03 12:06:26;;;;;;;6.43;1.40;;;;;;;;;;5111077;28;20302;-48
2022/09/03 12:09:01;;;;;;;3.20;1.40;;;;;;;;;;5111732;28;20202;-48
2022/09/03 12:11:34;;;;;;;3.90;1.30;;;;;;;;;;5111210;28;20658;-48
2022/09/03 12:14:03;;;;;;;2.73;1.23;;;;;;;;;;5111794;28;20265;-48
2022/09/03 12:16:37;;;;;;;2.67;1.30;;;;;;;;;;5112077;28;20199;-48
2022/09/03 12:19:06;;;;;;;2.47;1.40;;;;;;;;;;5111863;28;20245;-48
2022/09/03 12:21:36;;;;;;;2.40;1.30;;;;;;;;;;5112098;28;20243;-47
2022/09/03 12:24:04;;;;;;;2.57;1.50;;;;;;;;;;5111009;28;20268;-47
2022/09/03 12:26:30;;;;;;;2.97;1.10;;;;;;;;;;5111877;28;20667;-47
2022/09/03 12:28:56;;;;;;;3.17;1.30;;;;;;;;;;5111651;28;20198;-48
2022/09/03 12:31:24;;;;;;;2.00;1.10;;;;;;;;;;5111784;28;20776;-48
2022/09/03 12:33:52;;;;;;;5.90;1.37;;;;;;;;;;5112037;28;20218;-47
2022/09/03 12:36:18;;;;;;;1.13;1.03;;;;;;;;;;5112055;28;20216;-46
2022/09/03 12:38:46;;;;;;;1.77;1.20;;;;;;;;;;5111553;28;20667;-46
2022/09/03 12:41:25;;;;;;;3.43;1.30;;;;;;;;;;5111672;28;20209;-46
2022/09/03 12:43:52;;;;;;;1.93;1.33;;;;;;;;;;5110703;28;20722;-47
2022/09/03 12:46:19;;;;;;;3.87;1.50;;;;;;;;;;5111864;28;20277;-47
2022/09/03 12:48:56;;;;;;;7.80;1.60;;;;;;;;;;5111744;28;20545;-48
2022/09/03 12:51:22;;;;;;;4.23;1.50;;;;;;;;;;5111735;28;20562;-48
2022/09/03 12:53:49;;;;;;;2.73;1.27;;;;;;;;;;5111782;28;20198;-49
2022/09/03 12:56:16;;;;;;;2.87;1.70;;;;;;;;;;5111690;28;20644;-46
2022/09/03 12:58:48;;;;;;;2.13;1.20;;;;;;;;;;5111656;28;20632;-48
2022/09/03 13:01:18;;;;;;;3.87;1.40;;;;;;;;;;5111817;28;20199;-46
2022/09/03 13:03:46;;;;;;;2.20;1.13;;;;;;;;;;5111686;28;20217;-46
2022/09/03 13:06:14;;;;;;;1.97;1.30;;;;;;;;;;5111274;28;20198;-46
2022/09/03 13:08:43;;;;;;;2.13;1.40;;;;;;;;;;5111716;28;20238;-46
2022/09/03 13:11:10;;;;;;;5.63;1.23;;;;;;;;;;5110905;28;20243;-47
2022/09/03 13:13:36;;;;;;;2.70;1.33;;;;;;;;;;5111253;28;20187;-47
2022/09/03 13:16:11;;;;;;;4.10;1.40;;;;;;;;;;5110572;28;20226;-47
2022/09/03 13:18:40;;;;;;;2.17;1.50;;;;;;;;;;5111506;28;20205;-46
2022/09/03 13:21:11;;;;;;;2.90;1.27;;;;;;;;;;5111172;28;20198;-46
2022/09/03 13:23:47;;;;;;;1.40;1.20;;;;;;;;;;5105091;28;20215;-48
2022/09/03 13:26:19;;;;;;;2.87;1.43;;;;;;;;;;5090419;28;20229;-49
2022/09/03 13:28:51;;;;;;;1.77;1.30;;;;;;;;;;5090838;28;20649;-49
2022/09/03 13:31:26;;;;;;;2.53;1.20;;;;;;;;;;5090170;28;20596;-49
2022/09/03 13:33:54;;;;;;;9.00;1.50;;;;;;;;;;5091199;28;20209;-49
2022/09/03 13:36:22;;;;;;;1.43;1.20;;;;;;;;;;5094233;28;20199;-49
2022/09/03 13:38:51;;;;;;;2.17;1.27;;;;;;;;;;5094572;28;20229;-49
2022/09/03 13:41:24;;;;;;;2.93;1.30;;;;;;;;;;5094576;28;20557;-49
2022/09/03 13:43:52;;;;;;;6.10;1.30;;;;;;;;;;5094232;28;20231;-48
2022/09/03 13:46:23;;;;;;;2.43;1.27;;;;;;;;;;5094280;28;20206;-49
2022/09/03 13:51:48;;;;;;;3.60;1.50;;;;;;;;;;5094393;28;20190;-49
2022/09/03 13:54:16;;;;;;;2.13;1.37;;;;;;;;;;5093233;28;20661;-49
2022/09/03 13:56:47;;;;;;;4.83;1.10;;;;;;;;;;5094156;28;20203;-49
2022/09/03 13:59:19;;;;;;;2.40;1.30;;;;;;;;;;5093769;28;20273;-48
2022/09/03 14:02:15;;;;;;;5.30;1.43;;;;;;;;;;5092101;28;20192;-47
2022/09/03 14:04:47;;;;;;;1.83;1.07;;;;;;;;;;5051268;28;20233;-47
2022/09/03 14:07:15;;;;;;;2.13;1.00;;;;;;;;;;5084872;28;20239;-46
2022/09/03 14:09:45;;;;;;;3.27;1.30;;;;;;;;;;5093793;28;20203;-47
2022/09/03 14:12:17;;;;;;;1.40;1.03;;;;;;;;;;5093696;28;20256;-49
2022/09/03 14:14:48;;;;;;;3.53;1.40;;;;;;;;;;5093373;28;20594;-47
2022/09/03 14:17:18;;;;;;;1.73;1.13;;;;;;;;;;5093296;28;20566;-47
2022/09/03 14:19:47;;;;;;;3.23;1.37;;;;;;;;;;5093618;28;20199;-48
2022/09/03 14:22:15;;;;;;;1.50;1.30;;;;;;;;;;5093780;28;20211;-48
2022/09/03 14:24:45;;;;;;;1.70;1.20;;;;;;;;;;5093503;28;20273;-48
2022/09/03 14:27:11;;;;;;;5.60;1.50;;;;;;;;;;5093623;28;20199;-48
2022/09/03 14:29:37;;;;;;;5.23;1.60;;;;;;;;;;5093425;28;20206;-48
2022/09/03 14:32:22;;;;;;;3.70;1.20;;;;;;;;;;5093181;28;20234;-47
2022/09/03 14:35:07;;;;;;;2.53;1.07;;;;;;;;;;5092584;28;20243;-47
2022/09/03 14:37:49;;;;;;;1.63;1.30;;;;;;;;;;5093237;28;20190;-47
2022/09/03 14:40:17;;;;;;;1.30;1.20;;;;;;;;;;5093520;28;20302;-47
2022/09/03 14:42:59;;;;;;;4.80;1.43;;;;;;;;;;5093210;28;20222;-47
2022/09/03 14:45:36;;;;;;;3.97;1.50;;;;;;;;;;5092811;28;20230;-47
2022/09/03 14:48:09;;;;;;;2.53;1.40;;;;;;;;;;5093174;28;20209;-47
2022/09/03 14:50:42;;;;;;;1.53;1.20;;;;;;;;;;5092960;28;20210;-47
2022/09/03 14:53:17;;;;;;;1.10;1.00;;;;;;;;;;5092933;28;20277;-48
2022/09/03 14:55:56;;;;;;;1.67;1.17;;;;;;;;;;5092925;28;20300;-48
2022/09/03 14:58:29;;;;;;;2.70;1.40;;;;;;;;;;5093135;28;20277;-48